createdAt,value
2023-04-21T00:00:54.733Z,156.46
2023-04-21T00:01:54.704Z,157.00
2023-04-21T00:02:54.946Z,159.87
2023-04-21T00:03:54.890Z,163.01
2023-04-21T00:04:54.783Z,159.94
2023-04-21T00:05:54.828Z,161.41
2023-04-21T00:06:54.772Z,160.40
2023-04-21T00:07:54.815Z,160.82
2023-04-21T00:08:54.819Z,165.87
2023-04-21T00:09:54.809Z,165.82
2023-04-21T00:10:54.879Z,163.82
2023-04-21T00:11:54.848Z,164.35
2023-04-21T00:12:54.861Z,161.63
2023-04-21T00:13:54.875Z,159.95
2023-04-21T00:14:54.888Z,160.63
2023-04-21T00:15:54.953Z,163.01
2023-04-21T00:16:54.890Z,161.77
2023-04-21T00:17:54.953Z,162.14
2023-04-21T00:18:54.898Z,161.91
2023-04-21T00:19:54.923Z,164.63
2023-04-21T00:20:54.961Z,164.06
2023-04-21T00:21:54.946Z,166.72
2023-04-21T00:22:54.965Z,164.27
2023-04-21T00:23:54.961Z,161.65
2023-04-21T00:24:54.990Z,163.74
2023-04-21T00:25:55.042Z,163.26
2023-04-21T00:26:55.020Z,161.80
2023-04-21T00:27:55.018Z,162.92
2023-04-21T00:28:55.028Z,161.69
2023-04-21T00:29:55.067Z,163.64
2023-04-21T00:30:55.106Z,165.21
2023-04-21T00:31:55.183Z,163.49
2023-04-21T00:32:55.140Z,163.63
2023-04-21T00:33:55.093Z,164.65
2023-04-21T00:34:55.116Z,163.68
2023-04-21T00:35:55.126Z,164.84
2023-04-21T00:36:55.118Z,167.91
2023-04-21T00:37:55.134Z,167.15
2023-04-21T00:38:55.151Z,168.10
2023-04-21T00:39:55.169Z,167.34
2023-04-21T00:40:55.188Z,171.61
2023-04-21T00:41:55.212Z,172.15
2023-04-21T00:42:55.189Z,170.19
2023-04-21T00:43:55.182Z,169.58
2023-04-21T00:44:55.190Z,169.97
2023-04-21T00:45:55.210Z,169.66
2023-04-21T00:46:55.301Z,172.95
2023-04-21T00:47:55.267Z,173.32
2023-04-21T00:48:55.277Z,174.36
2023-04-21T00:49:55.288Z,174.57
2023-04-21T00:50:55.305Z,174.62
2023-04-21T00:51:55.323Z,172.09
2023-04-21T00:52:55.337Z,172.64
2023-04-21T00:53:55.356Z,172.45
2023-04-21T00:54:55.364Z,173.50
2023-04-21T00:55:55.379Z,170.90
2023-04-21T00:56:55.366Z,171.86
2023-04-21T00:57:55.390Z,172.01
2023-04-21T00:58:55.394Z,175.15
2023-04-21T00:59:55.404Z,172.70
2023-04-21T01:00:55.477Z,172.82
2023-04-21T01:01:55.455Z,172.04
2023-04-21T01:02:55.531Z,165.16
2023-04-21T01:03:55.556Z,159.73
2023-04-21T01:04:55.465Z,156.43
2023-04-21T01:05:55.478Z,155.64
2023-04-21T01:06:55.513Z,158.30
2023-04-21T01:07:55.899Z,166.30
2023-04-21T01:08:55.525Z,161.69
2023-04-21T01:09:55.510Z,159.31
2023-04-21T01:10:55.520Z,157.76
2023-04-21T01:11:55.544Z,158.00
2023-04-21T01:12:55.554Z,155.97
2023-04-21T01:13:55.586Z,156.76
2023-04-21T01:14:55.579Z,153.73
2023-04-21T01:15:55.626Z,156.94
2023-04-21T01:16:55.678Z,155.08
2023-04-21T01:17:55.660Z,155.44
2023-04-21T01:18:55.626Z,154.17
2023-04-21T01:19:55.638Z,154.26
2023-04-21T01:20:55.690Z,154.73
2023-04-21T01:21:55.663Z,156.10
2023-04-21T01:22:55.692Z,156.74
2023-04-21T01:23:55.713Z,154.10
2023-04-21T01:24:55.710Z,154.77
2023-04-21T01:25:55.749Z,156.04
2023-04-21T01:26:55.725Z,153.07
2023-04-21T01:27:55.744Z,154.88
2023-04-21T01:28:55.785Z,152.14
2023-04-21T01:29:55.753Z,152.20
2023-04-21T01:30:55.761Z,152.68
2023-04-21T01:31:55.788Z,153.05
2023-04-21T01:32:55.792Z,154.33
2023-04-21T01:33:55.797Z,155.82
2023-04-21T01:34:55.806Z,157.72
2023-04-21T01:35:55.836Z,156.99
2023-04-21T01:36:55.859Z,155.39
2023-04-21T01:37:55.874Z,154.45
2023-04-21T01:38:55.876Z,153.70
2023-04-21T01:39:55.894Z,155.02
2023-04-21T01:40:55.901Z,156.95
2023-04-21T01:41:55.927Z,155.43
2023-04-21T01:42:55.934Z,154.42
2023-04-21T01:43:55.952Z,155.21
2023-04-21T01:44:55.966Z,152.38
2023-04-21T01:45:56.020Z,150.23
2023-04-21T01:46:55.979Z,151.05
2023-04-21T01:47:56.048Z,150.70
2023-04-21T01:48:55.999Z,148.16
2023-04-21T01:49:56.018Z,149.37
2023-04-21T01:50:56.022Z,152.92
2023-04-21T01:51:56.083Z,149.63
2023-04-21T01:52:56.147Z,154.88
2023-04-21T01:53:56.198Z,153.41
2023-04-21T01:54:56.308Z,152.24
2023-04-21T01:55:56.237Z,151.58
2023-04-21T01:56:56.342Z,149.61
2023-04-21T01:57:56.343Z,149.88
2023-04-21T01:58:56.354Z,150.92
2023-04-21T01:59:56.372Z,150.01
2023-04-21T02:00:56.464Z,149.22
2023-04-21T02:01:56.485Z,153.30
2023-04-21T02:02:56.500Z,151.39
2023-04-21T02:03:56.470Z,150.90
2023-04-21T02:04:56.483Z,148.26
2023-04-21T02:05:56.494Z,146.79
2023-04-21T02:06:56.480Z,146.53
2023-04-21T02:07:56.426Z,148.56
2023-04-21T02:08:56.431Z,146.40
2023-04-21T02:09:56.444Z,142.96
2023-04-21T02:10:56.521Z,144.50
2023-04-21T02:11:56.546Z,143.63
2023-04-21T02:12:56.555Z,146.58
2023-04-21T02:13:56.576Z,146.60
2023-04-21T02:14:56.582Z,145.27
2023-04-21T02:16:06.157Z,149.98
2023-04-21T02:16:57.595Z,148.76
2023-04-21T02:17:56.632Z,145.24
2023-04-21T02:18:56.572Z,144.78
2023-04-21T02:19:56.565Z,145.72
2023-04-21T02:20:56.678Z,144.35
2023-04-21T02:21:56.599Z,142.15
2023-04-21T02:22:56.613Z,142.29
2023-04-21T02:23:56.596Z,147.15
2023-04-21T02:24:56.628Z,145.56
2023-04-21T02:25:56.527Z,144.38
2023-04-21T02:26:56.545Z,147.63
2023-04-21T02:27:56.516Z,146.25
2023-04-21T02:28:56.521Z,148.82
2023-04-21T02:29:56.502Z,149.37
2023-04-21T02:30:56.547Z,152.61
2023-04-21T02:32:02.879Z,153.50
2023-04-21T02:32:57.552Z,153.63
2023-04-21T02:33:56.475Z,153.99
2023-04-21T02:34:56.465Z,154.78
2023-04-21T02:35:56.472Z,158.40
2023-04-21T02:36:56.468Z,160.79
2023-04-21T02:37:56.458Z,161.34
2023-04-21T02:38:56.460Z,160.55
2023-04-21T02:39:56.434Z,162.51
2023-04-21T02:40:56.444Z,160.31
2023-04-21T02:41:56.434Z,157.30
2023-04-21T02:42:56.435Z,158.24
2023-04-21T02:43:56.443Z,160.80
2023-04-21T02:44:56.430Z,161.41
2023-04-21T02:45:56.429Z,160.74
2023-04-21T02:46:56.536Z,159.25
2023-04-21T02:47:56.416Z,159.88
2023-04-21T02:48:56.414Z,166.20
2023-04-21T02:49:56.391Z,175.33
2023-04-21T02:50:56.379Z,169.31
2023-04-21T02:51:56.399Z,170.96
2023-04-21T02:52:56.359Z,166.84
2023-04-21T02:53:56.349Z,166.96
2023-04-21T02:54:56.357Z,164.26
2023-04-21T02:55:56.390Z,163.29
2023-04-21T02:56:56.340Z,161.68
2023-04-21T02:57:56.335Z,164.46
2023-04-21T02:58:56.326Z,161.21
2023-04-21T02:59:56.326Z,158.30
2023-04-21T03:00:56.344Z,157.43
2023-04-21T03:01:56.312Z,155.93
2023-04-21T03:02:56.478Z,156.71
2023-04-21T03:03:56.432Z,154.65
2023-04-21T03:04:56.382Z,157.65
2023-04-21T03:05:56.387Z,160.43
2023-04-21T03:06:56.402Z,157.95
2023-04-21T03:07:56.394Z,155.98
2023-04-21T03:08:56.413Z,159.12
2023-04-21T03:09:56.439Z,157.74
2023-04-21T03:10:56.440Z,156.90
2023-04-21T03:11:56.467Z,157.08
2023-04-21T03:12:56.496Z,154.65
2023-04-21T03:13:56.501Z,152.20
2023-04-21T03:14:56.498Z,151.83
2023-04-21T03:15:56.530Z,154.16
2023-04-21T03:16:56.603Z,151.64
2023-04-21T03:17:56.603Z,151.98
2023-04-21T03:18:56.549Z,154.10
2023-04-21T03:19:56.556Z,158.94
2023-04-21T03:20:56.594Z,162.28
2023-04-21T03:21:56.605Z,159.02
2023-04-21T03:22:56.643Z,159.54
2023-04-21T03:23:56.646Z,160.97
2023-04-21T03:24:56.635Z,163.47
2023-04-21T03:25:56.675Z,157.08
2023-04-21T03:26:56.690Z,156.99
2023-04-21T03:27:56.703Z,161.19
2023-04-21T03:28:56.724Z,161.58
2023-04-21T03:29:56.729Z,160.39
2023-04-21T03:30:56.745Z,162.74
2023-04-21T03:31:56.826Z,162.48
2023-04-21T03:32:56.812Z,161.11
2023-04-21T03:33:56.773Z,161.98
2023-04-21T03:34:56.798Z,164.82
2023-04-21T03:35:56.821Z,165.43
2023-04-21T03:36:56.832Z,166.31
2023-04-21T03:37:56.857Z,167.90
2023-04-21T03:39:01.018Z,169.50
2023-04-21T03:39:57.834Z,169.64
2023-04-21T03:40:56.831Z,169.73
2023-04-21T03:41:56.836Z,170.21
2023-04-21T03:42:56.828Z,171.63
2023-04-21T03:43:56.823Z,172.17
2023-04-21T03:44:56.821Z,172.59
2023-04-21T03:45:56.866Z,172.10
2023-04-21T03:46:56.806Z,175.06
2023-04-21T03:47:56.829Z,176.35
2023-04-21T03:48:56.786Z,175.66
2023-04-21T03:49:56.765Z,174.02
2023-04-21T03:50:56.765Z,175.79
2023-04-21T03:51:56.769Z,175.26
2023-04-21T03:52:56.743Z,173.86
2023-04-21T03:53:56.741Z,174.80
2023-04-21T03:54:56.727Z,173.86
2023-04-21T03:55:56.739Z,173.99
2023-04-21T03:56:56.734Z,174.44
2023-04-21T03:57:56.719Z,171.80
2023-04-21T03:58:56.721Z,171.59
2023-04-21T03:59:56.710Z,172.76
2023-04-21T04:00:56.697Z,173.30
2023-04-21T04:01:56.698Z,172.37
2023-04-21T04:02:56.793Z,170.45
2023-04-21T04:03:56.839Z,170.97
2023-04-21T04:04:56.763Z,170.84
2023-04-21T04:05:56.678Z,172.62
2023-04-21T04:06:56.655Z,172.22
2023-04-21T04:07:56.662Z,173.80
2023-04-21T04:08:56.651Z,172.64
2023-04-21T04:09:56.666Z,174.66
2023-04-21T04:10:56.676Z,173.71
2023-04-21T04:11:56.712Z,175.78
2023-04-21T04:12:56.706Z,173.08
2023-04-21T04:13:56.718Z,171.20
2023-04-21T04:14:56.729Z,171.12
2023-04-21T04:15:56.800Z,170.63
2023-04-21T04:16:56.768Z,171.67
2023-04-21T04:17:56.826Z,169.82
2023-04-21T04:18:56.814Z,172.82
2023-04-21T04:19:56.845Z,176.48
2023-04-21T04:20:56.845Z,185.34
2023-04-21T04:21:56.864Z,195.33
2023-04-21T04:22:56.860Z,192.47
2023-04-21T04:23:56.891Z,191.21
2023-04-21T04:24:56.891Z,188.89
2023-04-21T04:25:56.908Z,190.00
2023-04-21T04:26:56.941Z,185.58
2023-04-21T04:27:56.938Z,185.65
2023-04-21T04:28:56.945Z,185.77
2023-04-21T04:29:56.986Z,190.16
2023-04-21T04:30:56.997Z,189.90
2023-04-21T04:31:57.005Z,192.03
2023-04-21T04:32:57.037Z,189.37
2023-04-21T04:33:57.019Z,189.06
2023-04-21T04:34:57.024Z,186.04
2023-04-21T04:35:57.019Z,186.73
2023-04-21T04:36:57.041Z,188.58
2023-04-21T04:37:57.047Z,190.83
2023-04-21T04:38:57.048Z,193.61
2023-04-21T04:39:57.092Z,195.98
2023-04-21T04:40:57.065Z,195.44
2023-04-21T04:41:57.082Z,196.90
2023-04-21T04:42:57.087Z,199.81
2023-04-21T04:43:58.370Z,203.91
2023-04-21T04:44:57.083Z,206.02
2023-04-21T04:45:57.076Z,205.56
2023-04-21T04:46:57.161Z,208.26
2023-04-21T04:47:57.100Z,210.84
2023-04-21T04:48:57.071Z,212.61
2023-04-21T04:49:57.074Z,210.91
2023-04-21T04:50:57.054Z,211.53
2023-04-21T04:51:57.059Z,211.83
2023-04-21T04:52:57.041Z,214.00
2023-04-21T04:53:57.046Z,214.99
2023-04-21T04:54:57.015Z,214.46
2023-04-21T04:55:57.012Z,219.75
2023-04-21T04:56:57.009Z,219.98
2023-04-21T04:57:57.015Z,217.54
2023-04-21T04:58:57.001Z,213.95
2023-04-21T04:59:56.981Z,209.45
2023-04-21T05:00:56.983Z,211.62
2023-04-21T05:01:57.102Z,211.83
2023-04-21T05:02:57.048Z,212.39
2023-04-21T05:03:57.166Z,213.03
2023-04-21T05:04:57.036Z,213.03
2023-04-21T05:05:56.946Z,212.64
2023-04-21T05:06:57.254Z,215.29
2023-04-21T05:07:56.941Z,215.81
2023-04-21T05:08:56.931Z,214.63
2023-04-21T05:09:56.912Z,211.47
2023-04-21T05:10:56.918Z,212.99
2023-04-21T05:11:56.926Z,214.12
2023-04-21T05:12:56.900Z,213.71
2023-04-21T05:13:56.888Z,214.64
2023-04-21T05:14:56.886Z,212.81
2023-04-21T05:15:56.886Z,213.09
2023-04-21T05:16:56.979Z,213.62
2023-04-21T05:17:56.926Z,215.63
2023-04-21T05:18:56.859Z,217.63
2023-04-21T05:19:56.869Z,221.55
2023-04-21T05:20:56.848Z,222.65
2023-04-21T05:21:56.843Z,224.14
2023-04-21T05:22:56.869Z,223.17
2023-04-21T05:23:56.870Z,222.46
2023-04-21T05:24:56.830Z,222.37
2023-04-21T05:25:56.834Z,221.71
2023-04-21T05:26:56.813Z,223.73
2023-04-21T05:27:56.811Z,224.56
2023-04-21T05:28:56.820Z,226.20
2023-04-21T05:29:56.806Z,232.55
2023-04-21T05:30:56.806Z,239.96
2023-04-21T05:31:56.859Z,244.63
2023-04-21T05:32:56.845Z,247.58
2023-04-21T05:33:56.788Z,250.00
2023-04-21T05:34:56.766Z,249.41
2023-04-21T05:35:56.760Z,248.84
2023-04-21T05:36:57.255Z,249.50
2023-04-21T05:37:56.770Z,248.69
2023-04-21T05:38:56.740Z,250.33
2023-04-21T05:39:56.730Z,249.72
2023-04-21T05:40:56.743Z,249.74
2023-04-21T05:41:56.756Z,249.82
2023-04-21T05:42:56.708Z,245.92
2023-04-21T05:43:56.702Z,247.30
2023-04-21T05:44:56.700Z,251.82
2023-04-21T05:45:56.717Z,251.40
2023-04-21T05:46:56.683Z,246.78
2023-04-21T05:47:56.756Z,244.71
2023-04-21T05:48:56.672Z,246.96
2023-04-21T05:49:56.664Z,249.15
2023-04-21T05:50:56.665Z,249.93
2023-04-21T05:51:56.666Z,249.65
2023-04-21T05:52:56.667Z,249.35
2023-04-21T05:53:56.662Z,249.70
2023-04-21T05:54:56.648Z,250.00
2023-04-21T05:55:56.626Z,249.98
2023-04-21T05:56:56.621Z,245.44
2023-04-21T05:57:56.618Z,243.34
2023-04-21T05:58:56.622Z,239.92
2023-04-21T05:59:56.612Z,241.34
2023-04-21T06:00:56.615Z,242.98
2023-04-21T06:01:56.620Z,243.87
2023-04-21T06:03:56.904Z,247.18
2023-04-21T06:04:56.779Z,248.21
2023-04-21T06:05:56.636Z,248.98
2023-04-21T06:06:56.580Z,249.61
2023-04-21T06:07:56.557Z,249.38
2023-04-21T06:08:56.563Z,248.23
2023-04-21T06:09:56.550Z,247.45
2023-04-21T06:10:56.545Z,247.46
2023-04-21T06:11:56.562Z,246.97
2023-04-21T06:12:56.538Z,243.43
2023-04-21T06:13:56.518Z,243.60
2023-04-21T06:14:56.538Z,239.88
2023-04-21T06:15:56.524Z,237.74
2023-04-21T06:16:56.518Z,234.49
2023-04-21T06:17:56.530Z,233.25
2023-04-21T06:18:56.502Z,235.41
2023-04-21T06:19:56.518Z,236.47
2023-04-21T06:20:56.527Z,236.60
2023-04-21T06:21:56.551Z,235.97
2023-04-21T06:22:56.584Z,235.22
2023-04-21T06:23:56.573Z,236.10
2023-04-21T06:24:57.546Z,235.42
2023-04-21T06:25:56.620Z,230.90
2023-04-21T06:26:56.795Z,232.39
2023-04-21T06:27:56.644Z,229.49
2023-04-21T06:28:56.648Z,225.53
2023-04-21T06:29:56.646Z,228.80
2023-04-21T06:30:56.652Z,230.15
2023-04-21T06:31:56.860Z,230.25
2023-04-21T06:32:56.692Z,230.77
2023-04-21T06:33:56.624Z,230.93
2023-04-21T06:34:56.647Z,232.37
2023-04-21T06:35:56.640Z,232.93
2023-04-21T06:36:56.803Z,232.51
2023-04-21T06:37:56.714Z,231.39
2023-04-21T06:38:56.740Z,208.93
2023-04-21T06:39:56.745Z,173.61
2023-04-21T06:40:56.768Z,155.74
2023-04-21T06:41:57.286Z,141.31
2023-04-21T06:42:56.881Z,130.48
2023-04-21T06:43:56.881Z,124.35
2023-04-21T06:44:56.912Z,121.90
2023-04-21T06:45:56.907Z,126.84
2023-04-21T06:46:56.970Z,128.09
2023-04-21T06:47:57.018Z,130.36
2023-04-21T06:48:56.938Z,132.16
2023-04-21T06:49:56.954Z,127.03
2023-04-21T06:50:57.003Z,119.42
2023-04-21T06:51:57.307Z,112.12
2023-04-21T06:52:57.074Z,109.06
2023-04-21T06:53:57.126Z,106.88
2023-04-21T06:54:57.174Z,104.22
2023-04-21T06:55:57.263Z,100.08
2023-04-21T06:56:57.779Z,100.94
2023-04-21T06:57:57.786Z,96.64
2023-04-21T06:58:57.435Z,93.97
2023-04-21T06:59:57.488Z,94.61
2023-04-21T07:00:57.585Z,92.62
2023-04-21T07:01:57.803Z,84.53
2023-04-21T07:02:57.918Z,82.18
2023-04-21T07:03:57.876Z,78.23
2023-04-21T07:04:57.761Z,69.70
2023-04-21T07:05:57.815Z,62.22
2023-04-21T07:06:58.223Z,55.15
2023-04-21T07:07:57.822Z,48.87
2023-04-21T07:08:57.847Z,41.79
2023-04-21T07:09:57.902Z,38.01
2023-04-21T07:10:57.938Z,31.60
2023-04-21T07:11:57.946Z,34.18
2023-04-21T07:12:57.981Z,24.86
2023-04-21T07:13:58.006Z,29.99
2023-04-21T07:14:58.029Z,35.13
2023-04-21T07:15:58.047Z,24.26
2023-04-21T07:16:58.120Z,27.65
2023-04-21T07:17:58.185Z,43.82
2023-04-21T07:18:58.124Z,46.73
2023-04-21T07:19:58.148Z,43.03
2023-04-21T07:20:58.155Z,46.67
2023-04-21T07:21:58.214Z,44.01
2023-04-21T07:22:58.265Z,43.32
2023-04-21T07:23:58.324Z,45.94
2023-04-21T07:24:58.363Z,46.41
2023-04-21T07:25:58.415Z,47.56
2023-04-21T07:26:58.489Z,37.99
2023-04-21T07:27:58.484Z,47.95
2023-04-21T07:28:58.557Z,43.48
2023-04-21T07:29:58.548Z,39.46
2023-04-21T07:30:59.210Z,41.70
2023-04-21T07:31:58.806Z,55.55
2023-04-21T07:32:58.842Z,71.09
2023-04-21T07:33:58.634Z,83.95
2023-04-21T07:34:58.779Z,101.16
2023-04-21T07:35:58.750Z,117.06
2023-04-21T07:36:58.973Z,132.31
2023-04-21T07:37:58.839Z,144.40
2023-04-21T07:38:58.855Z,141.79
2023-04-21T07:39:58.832Z,137.39
2023-04-21T07:40:58.850Z,151.12
2023-04-21T07:41:58.850Z,150.52
2023-04-21T07:42:58.849Z,152.13
2023-04-21T07:43:58.849Z,165.28
2023-04-21T07:44:58.872Z,154.28
2023-04-21T07:45:58.915Z,154.80
2023-04-21T07:46:58.925Z,158.64
2023-04-21T07:47:59.029Z,164.00
2023-04-21T07:48:59.053Z,170.26
2023-04-21T07:49:59.111Z,177.06
2023-04-21T07:50:59.252Z,186.00
2023-04-21T07:51:59.215Z,185.45
2023-04-21T07:52:59.237Z,176.34
2023-04-21T07:53:59.293Z,182.73
2023-04-21T07:54:59.329Z,182.40
2023-04-21T07:55:59.351Z,179.75
2023-04-21T07:56:59.800Z,173.26
2023-04-21T07:57:59.416Z,177.01
2023-04-21T07:58:59.462Z,185.95
2023-04-21T07:59:59.458Z,179.22
2023-04-21T08:00:59.491Z,178.17
2023-04-21T08:01:59.811Z,179.47
2023-04-21T08:02:59.919Z,174.31
2023-04-21T08:03:59.698Z,186.86
2023-04-21T08:04:59.693Z,194.76
2023-04-21T08:05:59.967Z,181.45
2023-04-21T08:06:59.803Z,177.93
2023-04-21T08:07:59.642Z,177.91
2023-04-21T08:08:59.646Z,176.79
2023-04-21T08:09:59.644Z,150.46
2023-04-21T08:10:59.667Z,164.72
2023-04-21T08:11:59.677Z,174.48
2023-04-21T08:12:59.707Z,180.16
2023-04-21T08:13:59.673Z,185.04
2023-04-21T08:14:59.716Z,184.87
2023-04-21T08:15:59.778Z,187.39
2023-04-21T08:17:00.389Z,191.21
2023-04-21T08:18:00.390Z,197.47
2023-04-21T08:18:59.942Z,200.53
2023-04-21T08:20:00.053Z,190.78
2023-04-21T08:20:59.903Z,173.04
2023-04-21T08:22:00.339Z,106.57
2023-04-21T08:23:00.012Z,79.27
2023-04-21T08:24:00.023Z,55.39
2023-04-21T08:25:00.825Z,56.64
2023-04-21T08:26:00.131Z,53.82
2023-04-21T08:27:00.345Z,57.40
2023-04-21T08:28:00.254Z,48.07
2023-04-21T08:29:01.200Z,25.94
2023-04-21T08:30:00.389Z,29.49
2023-04-21T08:31:00.464Z,33.81
2023-04-21T08:32:00.484Z,40.62
2023-04-21T08:33:00.603Z,53.47
2023-04-21T08:34:02.783Z,54.68
2023-04-21T08:35:00.780Z,59.08
2023-04-21T08:36:07.460Z,45.33
2023-04-21T08:37:01.805Z,25.56
2023-04-21T08:38:00.824Z,19.51
2023-04-21T08:39:00.790Z,6.65
2023-04-21T08:40:00.776Z,6.10
2023-04-21T08:41:00.784Z,16.82
2023-04-21T08:42:00.795Z,34.89
2023-04-21T08:43:00.776Z,33.58
2023-04-21T08:44:00.766Z,18.09
2023-04-21T08:45:00.787Z,26.60
2023-04-21T08:46:00.895Z,26.46
2023-04-21T08:47:00.734Z,40.78
2023-04-21T08:48:00.790Z,51.86
2023-04-21T08:49:00.754Z,43.56
2023-04-21T08:50:00.811Z,43.01
2023-04-21T08:51:00.884Z,37.57
2023-04-21T08:52:00.966Z,18.12
2023-04-21T08:53:01.013Z,13.63
2023-04-21T08:54:01.100Z,26.98
2023-04-21T08:55:01.148Z,20.47
2023-04-21T08:56:10.937Z,31.40
2023-04-21T08:57:14.084Z,31.61
2023-04-21T08:58:02.193Z,31.41
2023-04-21T08:59:01.203Z,29.23
2023-04-21T09:00:01.202Z,35.54
2023-04-21T09:01:01.197Z,41.07
2023-04-21T09:02:01.312Z,51.36
2023-04-21T09:03:02.399Z,47.18
2023-04-21T09:04:01.264Z,49.59
2023-04-21T09:05:01.403Z,57.14
2023-04-21T09:06:01.490Z,57.90
2023-04-21T09:07:01.140Z,39.64
2023-04-21T09:08:01.110Z,41.69
2023-04-21T09:09:01.125Z,42.81
2023-04-21T09:10:01.112Z,48.17
2023-04-21T09:11:01.109Z,53.49
2023-04-21T09:12:01.131Z,48.20
2023-04-21T09:13:01.097Z,47.07
2023-04-21T09:14:01.092Z,41.57
2023-04-21T09:15:01.148Z,42.54
2023-04-21T09:16:01.084Z,39.45
2023-04-21T09:17:01.157Z,28.72
2023-04-21T09:18:01.093Z,45.67
2023-04-21T09:19:01.108Z,53.38
2023-04-21T09:20:01.038Z,49.24
2023-04-21T09:21:01.050Z,58.21
2023-04-21T09:22:01.038Z,64.15
2023-04-21T09:23:01.039Z,54.50
2023-04-21T09:24:01.016Z,58.59
2023-04-21T09:25:01.021Z,72.48
2023-04-21T09:26:01.012Z,78.92
2023-04-21T09:27:01.012Z,56.47
2023-04-21T09:28:01.026Z,28.14
2023-04-21T09:29:00.988Z,36.74
2023-04-21T09:30:01.036Z,24.79
2023-04-21T09:31:01.112Z,14.11
2023-04-21T09:32:01.171Z,21.63
2023-04-21T09:33:01.193Z,25.00
2023-04-21T09:34:01.695Z,22.60
2023-04-21T09:35:01.161Z,27.17
2023-04-21T09:36:01.207Z,29.52
2023-04-21T09:37:01.241Z,25.00
2023-04-21T09:38:01.305Z,25.36
2023-04-21T09:41:01.315Z,30.73
2023-04-21T09:42:01.363Z,29.07
2023-04-21T09:43:01.315Z,23.59
2023-04-21T09:44:01.330Z,22.95
2023-04-21T09:46:01.277Z,14.97
2023-04-21T09:47:01.271Z,19.29
2023-04-21T09:48:01.356Z,8.43
2023-04-21T09:49:01.271Z,10.96
2023-04-21T09:50:01.267Z,15.57
2023-04-21T09:51:28.198Z,30.02
2023-04-21T09:53:01.362Z,17.51
2023-04-21T09:54:01.239Z,14.62
2023-04-21T09:55:01.265Z,12.69
2023-04-21T09:56:01.227Z,11.77
2023-04-21T09:57:01.218Z,18.75
2023-04-21T09:58:01.378Z,14.05
2023-04-21T09:59:01.207Z,24.08
2023-04-21T10:00:01.206Z,23.80
2023-04-21T10:01:01.211Z,31.23
2023-04-21T10:02:01.472Z,20.31
2023-04-21T10:03:01.263Z,18.75
2023-04-21T10:04:01.510Z,22.98
2023-04-21T10:05:01.371Z,22.41
2023-04-21T10:06:01.186Z,24.27
2023-04-21T10:07:01.155Z,27.39
2023-04-21T10:08:01.357Z,34.15
2023-04-21T10:09:01.130Z,37.95
2023-04-21T10:10:01.145Z,40.08
2023-04-21T10:11:01.136Z,41.94
2023-04-21T10:12:01.138Z,44.73
2023-04-21T10:13:01.114Z,48.39
2023-04-21T10:14:01.136Z,48.99
2023-04-21T10:15:01.118Z,53.49
2023-04-21T10:16:01.143Z,54.07
2023-04-21T10:17:01.101Z,59.25
2023-04-21T10:18:01.442Z,65.08
2023-04-21T10:19:01.373Z,66.43
2023-04-21T10:20:01.091Z,69.67
2023-04-21T10:21:01.075Z,34.69
2023-04-21T10:22:01.062Z,10.55
2023-04-21T10:23:01.057Z,9.17
2023-04-21T10:24:01.362Z,20.08
2023-04-21T10:25:01.076Z,0.00
2023-04-21T10:26:01.043Z,0.00
2023-04-21T10:27:01.053Z,4.79
2023-04-21T10:28:01.043Z,33.07
2023-04-21T10:29:01.073Z,50.77
2023-04-21T10:30:01.113Z,40.88
2023-04-21T10:31:01.157Z,50.41
2023-04-21T10:32:01.368Z,47.49
2023-04-21T10:33:01.235Z,53.87
2023-04-21T10:34:01.233Z,38.33
2023-04-21T10:35:01.264Z,30.17
2023-04-21T10:36:01.354Z,0.74
2023-04-21T10:37:01.367Z,0.94
2023-04-21T10:38:01.388Z,4.68
2023-04-21T10:39:01.409Z,14.34
2023-04-21T10:40:01.470Z,22.55
2023-04-21T10:41:01.492Z,30.67
2023-04-21T10:42:01.532Z,26.86
2023-04-21T10:43:01.540Z,19.37
2023-04-21T10:44:01.573Z,24.15
2023-04-21T10:45:01.607Z,27.04
2023-04-21T10:46:01.621Z,22.98
2023-04-21T10:47:01.690Z,25.90
2023-04-21T10:48:01.745Z,30.21
2023-04-21T10:49:01.707Z,32.52
2023-04-21T10:50:01.700Z,36.22
2023-04-21T10:51:01.744Z,27.67
2023-04-21T10:52:01.806Z,30.09
2023-04-21T10:53:01.870Z,29.95
2023-04-21T10:54:01.905Z,24.85
2023-04-21T10:55:01.927Z,27.94
2023-04-21T10:56:01.968Z,23.36
2023-04-21T10:57:01.978Z,34.89
2023-04-21T10:58:02.030Z,39.46
2023-04-21T10:59:02.388Z,45.32
2023-04-21T11:00:02.105Z,49.74
2023-04-21T11:01:02.169Z,41.58
2023-04-21T11:02:02.239Z,39.69
2023-04-21T11:03:02.268Z,39.21
2023-04-21T11:04:02.419Z,36.10
2023-04-21T11:05:02.345Z,36.16
2023-04-21T11:06:02.299Z,35.78
2023-04-21T11:07:02.331Z,32.49
2023-04-21T11:08:02.347Z,40.31
2023-04-21T11:09:02.398Z,51.07
2023-04-21T11:10:02.432Z,56.44
2023-04-21T11:11:02.474Z,63.25
2023-04-21T11:12:02.529Z,63.37
2023-04-21T11:13:02.871Z,60.75
2023-04-21T11:14:02.639Z,40.02
2023-04-21T11:15:02.661Z,43.68
2023-04-21T11:16:02.679Z,50.81
2023-04-21T11:17:02.801Z,57.37
2023-04-21T11:18:02.946Z,63.49
2023-04-21T11:19:02.694Z,68.36
2023-04-21T11:20:02.744Z,70.97
2023-04-21T11:21:02.788Z,78.58
2023-04-21T11:22:02.852Z,83.76
2023-04-21T11:23:03.365Z,84.46
2023-04-21T11:24:02.975Z,97.09
2023-04-21T11:25:03.046Z,102.09
2023-04-21T11:26:03.100Z,117.39
2023-04-21T11:27:03.124Z,121.04
2023-04-21T11:28:03.186Z,127.17
2023-04-21T11:29:03.246Z,132.07
2023-04-21T11:30:03.292Z,152.78
2023-04-21T11:31:03.358Z,160.79
2023-04-21T11:32:03.381Z,168.46
2023-04-21T11:33:03.491Z,194.06
2023-04-21T11:34:03.482Z,209.42
2023-04-21T11:35:03.502Z,222.10
2023-04-21T11:36:03.551Z,234.40
2023-04-21T11:37:03.612Z,236.35
2023-04-21T11:38:03.649Z,231.52
2023-04-21T11:39:03.717Z,245.68
2023-04-21T11:40:03.751Z,245.29
2023-04-21T11:41:03.800Z,241.11
2023-04-21T11:42:03.865Z,226.72
2023-04-21T11:43:03.930Z,219.72
2023-04-21T11:44:03.954Z,218.23
2023-04-21T11:45:03.979Z,211.70
2023-04-21T11:46:04.058Z,208.93
2023-04-21T11:47:04.068Z,207.55
2023-04-21T11:48:04.163Z,216.03
2023-04-21T11:49:04.138Z,220.90
2023-04-21T11:50:04.177Z,225.38
2023-04-21T11:51:04.205Z,227.32
2023-04-21T11:52:04.256Z,229.50
2023-04-21T11:53:04.307Z,231.53
2023-04-21T11:54:04.328Z,231.59
2023-04-21T11:55:04.355Z,232.53
2023-04-21T11:56:04.378Z,232.99
2023-04-21T11:57:04.415Z,233.18
2023-04-21T11:58:04.456Z,234.16
2023-04-21T11:59:04.457Z,232.56
2023-04-21T12:00:04.488Z,234.89
2023-04-21T12:01:04.516Z,233.71
2023-04-21T12:02:04.589Z,234.08
2023-04-21T12:03:04.806Z,234.32
2023-04-21T12:04:04.868Z,234.77
2023-04-21T12:05:04.913Z,236.67
2023-04-21T12:06:04.679Z,236.70
2023-04-21T12:07:04.689Z,238.78
2023-04-21T12:08:04.753Z,239.81
2023-04-21T12:09:04.769Z,239.47
2023-04-21T12:10:04.786Z,242.57
2023-04-21T12:11:04.773Z,243.35
2023-04-21T12:12:04.805Z,244.59
2023-04-21T12:13:04.800Z,243.61
2023-04-21T12:14:04.827Z,244.26
2023-04-21T12:15:04.837Z,244.84
2023-04-21T12:16:04.879Z,244.33
2023-04-21T12:17:04.902Z,244.20
2023-04-21T12:18:04.934Z,243.79
2023-04-21T12:19:04.976Z,244.02
2023-04-21T12:20:05.002Z,246.14
2023-04-21T12:21:05.017Z,246.47
2023-04-21T12:22:05.057Z,244.89
2023-04-21T12:23:05.096Z,244.21
2023-04-21T12:24:05.102Z,246.35
2023-04-21T12:25:05.147Z,244.71
2023-04-21T12:26:05.150Z,243.99
2023-04-21T12:27:05.178Z,244.95
2023-04-21T12:28:05.252Z,243.95
2023-04-21T12:29:05.262Z,243.70
2023-04-21T12:30:05.269Z,245.29
2023-04-21T12:31:05.359Z,245.46
2023-04-21T12:32:05.586Z,244.26
2023-04-21T12:33:05.458Z,243.24
2023-04-21T12:34:05.526Z,246.23
2023-04-21T12:35:05.461Z,245.40
2023-04-21T12:36:05.480Z,246.05
2023-04-21T12:37:05.532Z,243.95
2023-04-21T12:38:05.547Z,242.69
2023-04-21T12:39:05.582Z,244.30
2023-04-21T12:40:05.590Z,241.87
2023-04-21T12:41:05.625Z,240.85